Broughton Island, Canada
Current Conditions -  °F | °C
As of 6:00 PM on Wednesday 22 Oct 2014 (Local Time) from CYVM Reporting Station
Clear Clear  
Wind Chill: 13°   Ceiling: Unl
Heat Index: 23°   Visibility: 9mi
Dew Point: 16°   Wind: 9mph
Humidity: 74%   Direction: 200°SSW
Pressure: 29.57"   Gusts: NA
Location:  67.53°N, 63.77°W
Report Text: CYVM 222100Z AUTO 20008KT 9SM CLR M05/M09 A2957 RMK SLP013
Loading
Personal Weather Stations






























Interactive Weather Map
Tropical Storm Tracking
New forecast layout! Learn more

10-Day Weather Forecast

Advertisements
Track Severe Weather on mobile